New Castle, Virginia
Current Conditions -  °F | °C
As of 2:54 PM on Thursday 23 Oct 2014 (Local Time) from KROA Reporting Station
Few Clouds Few Clouds  
Wind Chill: 61°   Ceiling: Unl
Heat Index: 61°   Visibility: 10mi
Dew Point: 39°   Wind: 16mph
Humidity: 44%   Direction: 290°WNW
Pressure: 30.01"   Gusts: 30mph
Location:  37.5°N, 80.11°W
Report Text: KROA 231854Z 29014G26KT 10SM FEW040 16/04 A3001 RMK AO2 PK WND 29026/1847 SLP159 T01610039
Loading
Personal Weather Stations






























Interactive Weather Map
Tropical Storm Tracking
New forecast layout! Learn more

10-Day Weather Forecast

Advertisements
Track Severe Weather on mobile